createdAt,value
2022-07-29T00:00:21.575Z,2.20
2022-07-29T00:03:03.105Z,2.00
2022-07-29T00:05:30.241Z,2.30
2022-07-29T00:07:57.486Z,2.60
2022-07-29T00:10:24.698Z,2.70
2022-07-29T00:12:52.185Z,2.20
2022-07-29T00:15:43.957Z,2.80
2022-07-29T00:18:15.757Z,2.50
2022-07-29T00:20:43.103Z,2.70
2022-07-29T00:23:13.684Z,2.30
2022-07-29T00:25:40.941Z,2.80
2022-07-29T00:28:08.082Z,2.80
2022-07-29T00:30:34.937Z,3.00
2022-07-29T00:33:24.482Z,2.80
2022-07-29T00:35:51.879Z,2.80
2022-07-29T00:38:22.898Z,3.30
2022-07-29T00:40:51.159Z,2.60
2022-07-29T00:43:18.436Z,3.30
2022-07-29T00:45:46.323Z,2.50
2022-07-29T00:48:13.693Z,2.60
2022-07-29T00:50:40.749Z,2.50
2022-07-29T00:53:08.795Z,2.40
2022-07-29T00:55:36.906Z,3.00
2022-07-29T00:58:06.959Z,1.70
2022-07-29T01:00:34.155Z,2.00
2022-07-29T01:03:01.167Z,2.10
2022-07-29T01:05:50.995Z,1.70
2022-07-29T01:08:21.041Z,2.30
2022-07-29T01:10:50.971Z,2.10
2022-07-29T01:13:20.029Z,2.60
2022-07-29T01:15:54.939Z,2.10
2022-07-29T01:18:45.274Z,2.10
2022-07-29T01:21:38.133Z,2.60
2022-07-29T01:24:51.377Z,2.60
2022-07-29T01:27:47.274Z,2.10
2022-07-29T01:30:15.985Z,2.70
2022-07-29T01:32:45.288Z,2.50
2022-07-29T01:35:23.638Z,2.30
2022-07-29T01:38:05.591Z,2.10
2022-07-29T01:40:43.703Z,2.20
2022-07-29T01:43:17.383Z,2.20
2022-07-29T01:48:22.928Z,1.90
2022-07-29T01:50:59.993Z,2.80
2022-07-29T01:53:43.261Z,2.50
2022-07-29T01:56:14.264Z,2.80
2022-07-29T01:58:43.326Z,2.50
2022-07-29T02:01:14.085Z,2.70
2022-07-29T02:03:46.110Z,2.50
2022-07-29T02:06:17.401Z,2.90
2022-07-29T02:08:46.653Z,2.90
2022-07-29T02:11:13.882Z,3.00
2022-07-29T02:13:43.105Z,2.50
2022-07-29T02:16:10.403Z,2.70
2022-07-29T02:18:42.539Z,2.60
2022-07-29T02:21:14.800Z,2.70
2022-07-29T02:23:51.012Z,2.60
2022-07-29T02:26:24.434Z,2.60
2022-07-29T02:28:55.674Z,2.40
2022-07-29T02:31:27.816Z,3.00
2022-07-29T02:33:56.882Z,2.50
2022-07-29T02:36:26.925Z,2.80
2022-07-29T02:38:59.265Z,2.30
2022-07-29T02:41:34.224Z,2.60
2022-07-29T02:44:10.283Z,2.60
2022-07-29T02:46:43.368Z,2.40
2022-07-29T02:49:19.575Z,2.60
2022-07-29T02:51:53.564Z,2.40
2022-07-29T02:54:51.464Z,2.60
2022-07-29T02:57:54.521Z,2.70
2022-07-29T03:00:28.022Z,2.20
2022-07-29T03:02:59.112Z,2.20
2022-07-29T03:05:26.878Z,2.30
2022-07-29T03:07:59.472Z,2.40
2022-07-29T03:10:30.079Z,2.30
2022-07-29T03:12:57.915Z,2.60
2022-07-29T03:15:27.776Z,2.60
2022-07-29T03:17:56.129Z,2.40
2022-07-29T03:20:23.273Z,3.00
2022-07-29T03:22:50.708Z,2.50
2022-07-29T03:25:20.247Z,2.80
2022-07-29T03:27:48.437Z,2.90
2022-07-29T03:30:21.902Z,3.30
2022-07-29T03:32:52.187Z,3.50
2022-07-29T03:35:20.661Z,4.50
2022-07-29T03:37:47.799Z,4.10
2022-07-29T03:40:20.671Z,4.30
2022-07-29T03:42:49.713Z,22.60
2022-07-29T03:45:19.675Z,15.50
2022-07-29T03:47:54.691Z,29.00
2022-07-29T03:50:24.260Z,16.10
2022-07-29T03:52:51.442Z,28.80
2022-07-29T03:55:18.320Z,34.30
2022-07-29T03:57:46.990Z,36.20
2022-07-29T04:00:15.960Z,28.90
2022-07-29T04:02:48.707Z,21.50
2022-07-29T04:05:16.480Z,16.30
2022-07-29T04:07:48.150Z,11.70
2022-07-29T04:10:17.443Z,6.40
2022-07-29T04:12:54.282Z,6.00
2022-07-29T04:15:21.088Z,5.30
2022-07-29T04:17:47.862Z,5.00
2022-07-29T04:20:16.209Z,4.80
2022-07-29T04:22:43.039Z,3.90
2022-07-29T04:25:09.934Z,4.30
2022-07-29T04:27:56.749Z,4.40
2022-07-29T04:30:23.601Z,5.30
2022-07-29T04:32:50.389Z,4.20
2022-07-29T04:35:17.271Z,4.70
2022-07-29T04:37:44.048Z,4.70
2022-07-29T04:40:11.282Z,4.80
2022-07-29T04:42:46.300Z,4.30
2022-07-29T04:45:14.405Z,4.40
2022-07-29T04:47:41.524Z,4.40
2022-07-29T04:50:10.174Z,4.80
2022-07-29T04:52:37.206Z,4.60
2022-07-29T04:55:05.634Z,4.60
2022-07-29T04:57:32.965Z,4.60
2022-07-29T04:59:59.801Z,4.50
2022-07-29T05:02:26.801Z,5.20
2022-07-29T05:04:53.699Z,4.50
2022-07-29T05:07:20.692Z,4.30
2022-07-29T05:09:48.249Z,4.40
2022-07-29T05:12:15.092Z,3.70
2022-07-29T05:14:41.942Z,3.80
2022-07-29T05:17:08.983Z,3.50
2022-07-29T05:19:39.372Z,3.90
2022-07-29T05:22:06.849Z,4.00
2022-07-29T05:24:33.675Z,3.80
2022-07-29T05:27:00.626Z,4.00
2022-07-29T05:29:44.106Z,3.90
2022-07-29T05:32:13.339Z,4.20
2022-07-29T05:34:50.970Z,4.00
2022-07-29T05:37:21.679Z,3.30
2022-07-29T05:39:56.274Z,3.60
2022-07-29T05:42:25.228Z,3.60
2022-07-29T05:44:52.874Z,3.40
2022-07-29T05:47:19.757Z,3.30
2022-07-29T05:49:46.633Z,2.90
2022-07-29T05:52:13.798Z,2.90
2022-07-29T05:54:41.151Z,3.20
2022-07-29T05:57:08.099Z,3.10
2022-07-29T05:59:38.319Z,3.20
2022-07-29T06:02:08.270Z,3.10
2022-07-29T06:04:35.337Z,3.20
2022-07-29T06:07:02.379Z,3.70
2022-07-29T06:09:30.111Z,3.10
2022-07-29T06:11:58.379Z,3.60
2022-07-29T06:14:26.142Z,2.80
2022-07-29T06:16:53.637Z,2.30
2022-07-29T06:19:20.558Z,2.60
2022-07-29T06:21:48.481Z,2.30
2022-07-29T06:24:16.833Z,2.80
2022-07-29T06:26:43.891Z,2.20
2022-07-29T06:29:11.302Z,2.40
2022-07-29T06:31:38.496Z,2.40
2022-07-29T06:34:05.327Z,2.30
2022-07-29T06:36:36.916Z,2.20
2022-07-29T06:39:07.756Z,1.60
2022-07-29T06:41:35.381Z,1.90
2022-07-29T06:44:05.237Z,2.00
2022-07-29T06:46:32.689Z,2.00
2022-07-29T06:49:01.861Z,1.60
2022-07-29T06:51:29.111Z,1.80
2022-07-29T06:54:00.422Z,1.60
2022-07-29T06:56:32.160Z,1.80
2022-07-29T06:59:05.773Z,2.00
2022-07-29T07:01:32.693Z,2.10
2022-07-29T07:03:59.500Z,2.00
2022-07-29T07:06:26.603Z,2.30
2022-07-29T07:08:53.473Z,2.00
2022-07-29T07:11:20.405Z,1.70
2022-07-29T07:13:47.239Z,1.80
2022-07-29T07:16:14.311Z,2.00
2022-07-29T07:18:41.275Z,1.40
2022-07-29T07:21:08.221Z,1.40
2022-07-29T07:23:35.054Z,1.80
2022-07-29T07:26:01.988Z,1.80
2022-07-29T07:28:29.212Z,1.40
2022-07-29T07:30:56.468Z,1.70
2022-07-29T07:33:23.401Z,1.80
2022-07-29T07:35:50.164Z,1.60
2022-07-29T07:38:16.971Z,2.00
2022-07-29T07:40:44.005Z,2.30
2022-07-29T07:43:10.998Z,1.80
2022-07-29T07:45:37.843Z,2.60
2022-07-29T07:48:06.069Z,1.80
2022-07-29T07:50:32.973Z,2.60
2022-07-29T07:53:02.554Z,1.60
2022-07-29T07:55:30.704Z,1.80
2022-07-29T07:58:16.395Z,2.60
2022-07-29T08:00:43.464Z,1.60
2022-07-29T08:03:17.037Z,1.50
2022-07-29T08:05:44.680Z,1.70
2022-07-29T08:08:11.544Z,1.50
2022-07-29T08:10:53.834Z,1.60
2022-07-29T08:13:22.872Z,1.70
2022-07-29T08:15:58.060Z,1.30
2022-07-29T08:18:47.316Z,1.60
2022-07-29T08:21:16.013Z,1.90
2022-07-29T08:23:58.973Z,1.90
2022-07-29T08:26:26.874Z,1.70
2022-07-29T08:28:53.799Z,1.90
2022-07-29T08:31:20.657Z,2.10
2022-07-29T08:33:47.826Z,1.70
2022-07-29T08:36:14.753Z,1.80
2022-07-29T08:38:42.148Z,2.00
2022-07-29T08:41:09.190Z,1.30
2022-07-29T08:43:37.911Z,1.80
2022-07-29T08:46:05.128Z,1.90
2022-07-29T08:48:33.632Z,2.90
2022-07-29T08:51:02.494Z,1.70
2022-07-29T08:53:32.436Z,1.70
2022-07-29T08:56:00.022Z,1.70
2022-07-29T08:58:31.872Z,1.70
2022-07-29T09:01:02.554Z,1.80
2022-07-29T09:03:35.162Z,2.30
2022-07-29T09:06:04.128Z,1.80
2022-07-29T09:08:34.180Z,1.90
2022-07-29T09:11:04.174Z,1.80
2022-07-29T09:13:32.948Z,1.60
2022-07-29T09:16:02.523Z,1.50
2022-07-29T09:18:39.928Z,1.90
2022-07-29T09:21:29.593Z,1.80
2022-07-29T09:24:02.305Z,1.60
2022-07-29T09:26:31.156Z,1.60
2022-07-29T09:28:59.632Z,1.70
2022-07-29T09:31:47.214Z,1.50
2022-07-29T09:34:17.109Z,2.10
2022-07-29T09:36:47.449Z,1.60
2022-07-29T09:39:17.752Z,1.90
2022-07-29T09:41:47.138Z,1.70
2022-07-29T09:44:15.327Z,2.30
2022-07-29T09:47:09.998Z,2.10
2022-07-29T09:49:53.275Z,1.50
2022-07-29T09:52:20.353Z,1.80
2022-07-29T09:54:47.227Z,1.70
2022-07-29T09:57:28.659Z,1.70
2022-07-29T10:00:00.180Z,1.90
2022-07-29T10:02:31.874Z,1.40
2022-07-29T10:05:01.048Z,2.10
2022-07-29T10:07:51.790Z,2.30
2022-07-29T10:10:21.765Z,1.90
2022-07-29T10:12:55.208Z,2.20
2022-07-29T10:15:27.275Z,2.80
2022-07-29T10:17:56.187Z,2.50
2022-07-29T10:20:25.131Z,2.00
2022-07-29T10:22:54.070Z,2.20
2022-07-29T10:25:22.477Z,2.10
2022-07-29T10:27:51.751Z,2.10
2022-07-29T10:30:20.295Z,2.10
2022-07-29T10:32:58.132Z,2.30
2022-07-29T10:35:30.766Z,3.00
2022-07-29T10:38:22.529Z,3.20
2022-07-29T10:41:32.291Z,5.00
2022-07-29T10:44:19.416Z,10.00
2022-07-29T10:46:51.775Z,12.80
2022-07-29T10:49:24.872Z,15.00
2022-07-29T10:51:56.803Z,15.40
2022-07-29T10:54:35.801Z,17.20
2022-07-29T10:57:55.274Z,18.30
2022-07-29T11:00:31.145Z,18.00
2022-07-29T11:02:58.854Z,19.40
2022-07-29T11:05:39.773Z,18.50
2022-07-29T11:08:16.694Z,20.60
2022-07-29T11:10:52.046Z,18.80
2022-07-29T11:13:50.691Z,21.50
2022-07-29T11:16:20.104Z,19.90
2022-07-29T11:19:13.636Z,21.80
2022-07-29T11:21:55.096Z,22.60
2022-07-29T11:24:32.660Z,22.50
2022-07-29T11:27:22.705Z,22.70
2022-07-29T11:30:31.306Z,22.50
2022-07-29T11:33:04.809Z,22.10
2022-07-29T11:35:36.968Z,23.40
2022-07-29T11:38:23.226Z,22.80
2022-07-29T11:41:18.207Z,23.80
2022-07-29T11:43:50.593Z,22.80
2022-07-29T11:46:43.983Z,22.80
2022-07-29T11:49:12.017Z,24.00
2022-07-29T11:51:48.356Z,24.30
2022-07-29T11:54:31.835Z,26.50
2022-07-29T11:56:59.600Z,27.10
2022-07-29T11:59:33.109Z,23.80
2022-07-29T12:02:33.050Z,24.80
2022-07-29T12:05:16.314Z,25.30
2022-07-29T12:07:51.411Z,26.80
2022-07-29T12:10:30.066Z,27.80
2022-07-29T12:13:00.344Z,30.30
2022-07-29T12:15:45.860Z,29.20
2022-07-29T12:18:19.661Z,27.90
2022-07-29T12:20:58.911Z,31.90
2022-07-29T12:23:35.108Z,30.80
2022-07-29T12:27:03.800Z,29.50
2022-07-29T12:29:34.685Z,28.10
2022-07-29T12:32:06.780Z,28.00
2022-07-29T12:34:42.348Z,29.00
2022-07-29T12:37:10.658Z,28.00
2022-07-29T12:39:38.433Z,26.90
2022-07-29T12:42:14.927Z,26.90
2022-07-29T12:45:08.034Z,27.50
2022-07-29T12:47:52.004Z,27.30
2022-07-29T12:50:24.496Z,26.50
2022-07-29T12:52:55.481Z,25.90
2022-07-29T12:55:42.170Z,24.60
2022-07-29T12:58:11.100Z,25.40
2022-07-29T13:00:39.116Z,22.50
2022-07-29T13:03:06.428Z,21.40
2022-07-29T13:05:49.315Z,21.50
2022-07-29T13:08:22.357Z,21.30
2022-07-29T13:10:49.947Z,19.90
2022-07-29T13:13:16.943Z,23.40
2022-07-29T13:15:49.285Z,23.00
2022-07-29T13:18:29.440Z,22.20
2022-07-29T13:20:57.497Z,23.40
2022-07-29T13:23:28.798Z,22.00
2022-07-29T13:26:09.205Z,22.80
2022-07-29T13:28:37.269Z,24.20
2022-07-29T13:31:05.620Z,23.20
2022-07-29T13:33:32.810Z,23.20
2022-07-29T13:36:25.282Z,22.40
2022-07-29T13:38:52.191Z,22.50
2022-07-29T13:41:22.204Z,22.90
2022-07-29T13:43:50.134Z,23.50
2022-07-29T13:46:17.994Z,21.80
2022-07-29T13:48:52.451Z,22.60
2022-07-29T13:51:33.001Z,21.70
2022-07-29T13:54:02.077Z,23.40
2022-07-29T13:56:32.268Z,22.80
2022-07-29T13:59:08.091Z,23.20
2022-07-29T14:01:37.202Z,23.10
2022-07-29T14:04:12.286Z,22.10
2022-07-29T14:06:39.146Z,23.10
2022-07-29T14:09:11.608Z,21.50
2022-07-29T14:11:42.765Z,20.40
2022-07-29T14:14:12.882Z,20.50
2022-07-29T14:16:52.201Z,20.90
2022-07-29T14:19:21.924Z,21.30
2022-07-29T14:21:51.306Z,18.80
2022-07-29T14:24:21.889Z,20.60
2022-07-29T14:26:50.834Z,20.60
2022-07-29T14:29:18.515Z,19.60
2022-07-29T14:31:45.419Z,18.00
2022-07-29T14:34:12.334Z,17.10
2022-07-29T14:36:39.179Z,18.10
2022-07-29T14:39:05.911Z,15.90
2022-07-29T14:41:36.717Z,15.40
2022-07-29T14:44:04.061Z,15.50
2022-07-29T14:46:34.871Z,16.40
2022-07-29T14:49:07.378Z,13.00
2022-07-29T14:51:38.131Z,13.70
2022-07-29T14:54:08.302Z,13.30
2022-07-29T14:56:46.778Z,13.40
2022-07-29T14:59:17.667Z,13.80
2022-07-29T15:01:47.472Z,13.40
2022-07-29T15:04:14.339Z,13.60
2022-07-29T15:06:41.189Z,12.70
2022-07-29T15:09:14.122Z,12.10
2022-07-29T15:11:41.025Z,12.00
2022-07-29T15:14:08.285Z,12.00
2022-07-29T15:16:47.944Z,13.20
2022-07-29T15:19:15.432Z,11.60
2022-07-29T15:21:48.081Z,11.70
2022-07-29T15:24:28.193Z,11.10
2022-07-29T15:26:55.020Z,9.70
2022-07-29T15:29:22.109Z,10.80
2022-07-29T15:31:51.293Z,10.80
2022-07-29T15:34:21.247Z,10.60
2022-07-29T15:36:53.294Z,8.70
2022-07-29T15:39:22.480Z,8.90
2022-07-29T15:42:00.733Z,8.90
2022-07-29T15:44:29.333Z,9.30
2022-07-29T15:47:08.357Z,8.80
2022-07-29T15:49:48.594Z,8.40
2022-07-29T15:52:25.171Z,8.10
2022-07-29T15:55:08.100Z,8.10
2022-07-29T15:57:35.272Z,8.70
2022-07-29T16:00:03.434Z,8.00
2022-07-29T16:02:38.914Z,9.60
2022-07-29T16:05:09.570Z,9.10
2022-07-29T16:07:37.420Z,8.10
2022-07-29T16:10:04.748Z,8.10
2022-07-29T16:12:34.246Z,7.90
2022-07-29T16:15:03.830Z,11.90
2022-07-29T16:17:35.191Z,7.90
2022-07-29T16:20:06.143Z,7.70
2022-07-29T16:22:34.807Z,8.10
2022-07-29T16:25:01.624Z,9.00
2022-07-29T16:27:35.395Z,8.00
2022-07-29T16:30:09.107Z,7.10
2022-07-29T16:32:35.890Z,7.60
2022-07-29T16:35:04.724Z,6.50
2022-07-29T16:37:34.958Z,7.20
2022-07-29T16:40:05.769Z,7.00
2022-07-29T16:42:48.925Z,7.10
2022-07-29T16:45:16.614Z,7.30
2022-07-29T16:47:44.913Z,6.80
2022-07-29T16:50:11.761Z,6.50
2022-07-29T16:52:39.471Z,7.70
2022-07-29T16:55:07.036Z,7.70
2022-07-29T16:57:33.991Z,6.60
2022-07-29T17:00:00.775Z,6.60
2022-07-29T17:02:27.621Z,6.80
2022-07-29T17:04:54.865Z,7.20
2022-07-29T17:07:21.766Z,7.50
2022-07-29T17:09:52.645Z,7.50
2022-07-29T17:12:23.822Z,7.60
2022-07-29T17:14:50.857Z,7.40
2022-07-29T17:17:19.902Z,6.70
2022-07-29T17:19:48.045Z,7.40
2022-07-29T17:22:19.294Z,8.00
2022-07-29T17:24:48.891Z,7.60
2022-07-29T17:27:18.332Z,7.70
2022-07-29T17:29:45.289Z,6.60
2022-07-29T17:32:12.113Z,7.30
2022-07-29T17:34:40.775Z,9.00
2022-07-29T17:37:09.270Z,7.10
2022-07-29T17:39:40.147Z,7.10
2022-07-29T17:42:13.372Z,7.20
2022-07-29T17:44:41.029Z,8.00
2022-07-29T17:47:16.148Z,7.00
2022-07-29T17:49:44.861Z,7.10
2022-07-29T17:52:11.715Z,6.90
2022-07-29T17:54:38.652Z,7.60
2022-07-29T17:57:05.481Z,8.20
2022-07-29T17:59:32.515Z,7.40
2022-07-29T18:01:59.331Z,8.00
2022-07-29T18:04:26.226Z,7.60
2022-07-29T18:06:53.259Z,8.20
2022-07-29T18:09:20.024Z,7.20
2022-07-29T18:11:48.360Z,8.40
2022-07-29T18:14:15.322Z,10.10
2022-07-29T18:16:42.160Z,11.20
2022-07-29T18:19:08.972Z,10.00
2022-07-29T18:21:45.730Z,9.20
2022-07-29T18:24:20.932Z,10.40
2022-07-29T18:26:47.666Z,9.90
2022-07-29T18:29:14.456Z,9.20
2022-07-29T18:31:41.469Z,9.30
2022-07-29T18:34:08.343Z,10.70
2022-07-29T18:36:35.176Z,9.70
2022-07-29T18:39:01.988Z,10.20
2022-07-29T18:41:28.834Z,11.00
2022-07-29T18:43:55.620Z,11.30
2022-07-29T18:46:22.683Z,10.70
2022-07-29T18:48:49.838Z,10.80
2022-07-29T18:51:16.662Z,12.20
2022-07-29T18:53:44.374Z,10.70
2022-07-29T18:56:11.242Z,10.60
2022-07-29T18:58:38.775Z,10.60
2022-07-29T19:01:05.927Z,10.00
2022-07-29T19:03:33.109Z,11.00
2022-07-29T19:05:59.978Z,12.90
2022-07-29T19:08:26.856Z,12.40
2022-07-29T19:10:53.755Z,11.50
2022-07-29T19:13:20.579Z,12.40
2022-07-29T19:15:47.535Z,13.40
2022-07-29T19:18:14.438Z,11.60
2022-07-29T19:20:41.760Z,12.60
2022-07-29T19:23:08.811Z,13.00
2022-07-29T19:25:36.878Z,12.00
2022-07-29T19:28:20.705Z,12.80
2022-07-29T19:30:47.829Z,14.10
2022-07-29T19:33:17.086Z,13.50
2022-07-29T19:35:45.386Z,14.80
2022-07-29T19:38:12.945Z,15.80
2022-07-29T19:40:40.754Z,16.00
2022-07-29T19:43:49.517Z,15.90
2022-07-29T19:45:56.355Z,15.30
2022-07-29T19:48:23.474Z,15.30
2022-07-29T19:50:52.080Z,16.20
2022-07-29T19:53:18.906Z,15.30
2022-07-29T19:55:45.708Z,17.40
2022-07-29T19:58:12.582Z,17.10
2022-07-29T20:00:40.154Z,17.50
2022-07-29T20:03:07.181Z,16.60
2022-07-29T20:05:34.085Z,15.70
2022-07-29T20:08:05.276Z,14.00
2022-07-29T20:10:33.381Z,13.30
2022-07-29T20:13:00.246Z,15.70
2022-07-29T20:15:27.131Z,15.00
2022-07-29T20:17:57.292Z,16.20
2022-07-29T20:20:25.350Z,16.30
2022-07-29T20:22:52.961Z,16.70
2022-07-29T20:25:19.830Z,16.00
2022-07-29T20:27:48.809Z,14.00
2022-07-29T20:30:15.884Z,14.80
2022-07-29T20:32:45.586Z,17.20
2022-07-29T20:35:13.033Z,16.00
2022-07-29T20:37:52.127Z,14.60
2022-07-29T20:40:25.104Z,15.90
2022-07-29T20:42:53.083Z,14.70
2022-07-29T20:45:20.357Z,16.20
2022-07-29T20:47:47.176Z,14.40
2022-07-29T20:50:14.437Z,14.10
2022-07-29T20:52:42.841Z,13.30
2022-07-29T20:55:10.284Z,14.30
2022-07-29T20:57:38.998Z,14.50
2022-07-29T21:00:08.592Z,11.90
2022-07-29T21:02:36.145Z,12.40
2022-07-29T21:05:03.689Z,12.20
2022-07-29T21:07:30.685Z,10.10
2022-07-29T21:09:57.478Z,8.60
2022-07-29T21:12:24.272Z,8.70
2022-07-29T21:14:51.685Z,10.80
2022-07-29T21:17:21.208Z,10.00
2022-07-29T21:19:52.027Z,9.00
2022-07-29T21:22:21.344Z,8.10
2022-07-29T21:24:48.709Z,8.00
2022-07-29T21:27:34.650Z,7.20
2022-07-29T21:30:01.811Z,5.70
2022-07-29T21:32:29.955Z,7.30
2022-07-29T21:34:57.671Z,6.60
2022-07-29T21:37:24.529Z,7.60
2022-07-29T21:39:51.398Z,5.90
2022-07-29T21:42:18.404Z,6.60
2022-07-29T21:44:45.435Z,6.30
2022-07-29T21:47:12.239Z,6.10
2022-07-29T21:49:39.245Z,4.90
2022-07-29T21:52:07.872Z,5.30
2022-07-29T21:54:35.111Z,4.50
2022-07-29T21:57:02.330Z,6.70
2022-07-29T21:59:30.202Z,5.40
2022-07-29T22:02:00.333Z,6.10
2022-07-29T22:04:30.776Z,6.50
2022-07-29T22:06:58.470Z,6.10
2022-07-29T22:09:25.502Z,5.70
2022-07-29T22:11:52.877Z,5.50
2022-07-29T22:14:20.153Z,6.50
2022-07-29T22:16:47.906Z,4.90
2022-07-29T22:19:15.104Z,5.40
2022-07-29T22:21:42.065Z,5.20
2022-07-29T22:24:09.998Z,4.50
2022-07-29T22:26:37.941Z,4.40
2022-07-29T22:29:05.415Z,4.30
2022-07-29T22:31:32.231Z,4.50
2022-07-29T22:33:59.134Z,4.70
2022-07-29T22:36:26.603Z,4.40
2022-07-29T22:38:53.400Z,6.00
2022-07-29T22:41:20.256Z,4.90
2022-07-29T22:43:47.040Z,5.30
2022-07-29T22:46:13.887Z,6.70
2022-07-29T22:48:40.815Z,6.20
2022-07-29T22:51:07.767Z,5.90
2022-07-29T22:53:36.328Z,6.10
2022-07-29T22:56:03.512Z,7.10
2022-07-29T22:58:30.274Z,6.90
2022-07-29T23:00:57.311Z,6.40
2022-07-29T23:03:24.262Z,6.60
2022-07-29T23:05:51.432Z,6.30
2022-07-29T23:08:18.958Z,5.50
2022-07-29T23:10:46.207Z,6.20
2022-07-29T23:13:13.315Z,5.90
2022-07-29T23:15:40.417Z,6.40
2022-07-29T23:18:07.380Z,6.70
2022-07-29T23:20:34.718Z,6.60
2022-07-29T23:23:01.520Z,6.80
2022-07-29T23:25:28.425Z,6.70
2022-07-29T23:27:55.156Z,7.10
2022-07-29T23:30:21.992Z,6.20
2022-07-29T23:32:48.900Z,6.80
2022-07-29T23:35:15.730Z,5.90
2022-07-29T23:37:42.515Z,7.20
2022-07-29T23:40:14.183Z,6.90
2022-07-29T23:42:42.573Z,6.50
2022-07-29T23:45:11.047Z,6.40
2022-07-29T23:47:38.111Z,7.30
2022-07-29T23:50:07.106Z,7.00
2022-07-29T23:52:34.156Z,7.60
2022-07-29T23:55:36.685Z,7.00
2022-07-29T23:57:49.854Z,7.00
